Time;durP1;ratioP1;P1;durP2;ratioP2;P2;SDS_P1;SDS_P2;PMS_P1;PMS_P2;Temp;Humidity;BMP_temperature;BMP_pressure;BME280_temperature;BME280_humidity;BME280_pressure;Samples;Min_cycle;Max_cycle;Signal;HPM_P1;HPM_P2
2023/12/18 00:01:33;;;;;;;1999.90;999.90;;;-0.50;99.90;;;;;;5043046;28;20059;-77
2023/12/18 00:04:03;;;;;;;1999.90;999.90;;;-0.50;99.90;;;;;;5044152;28;20024;-77
2023/12/18 00:06:29;;;;;;;1999.90;999.90;;;-0.40;99.90;;;;;;5045470;28;20039;-76
2023/12/18 00:08:56;;;;;;;1999.90;999.90;;;-0.40;99.90;;;;;;5043426;28;20033;-77
2023/12/18 00:11:21;;;;;;;1999.90;999.90;;;-0.50;99.90;;;;;;5045140;28;20033;-77
2023/12/18 00:13:47;;;;;;;1999.90;999.90;;;-0.40;99.90;;;;;;5028957;28;20037;-77
2023/12/18 00:16:13;;;;;;;1999.90;999.90;;;-0.40;99.90;;;;;;5041927;28;20104;-77
2023/12/18 00:18:38;;;;;;;1999.90;999.90;;;-0.50;99.90;;;;;;5046708;28;20028;-77
2023/12/18 00:21:04;;;;;;;1999.90;999.90;;;-0.60;99.90;;;;;;5044845;28;20558;-78
2023/12/18 00:23:30;;;;;;;1999.90;999.90;;;-0.50;99.90;;;;;;5045929;28;20098;-77
2023/12/18 00:25:55;;;;;;;1999.90;999.90;;;-0.70;99.90;;;;;;5044797;28;20033;-77
2023/12/18 00:28:22;;;;;;;1999.90;999.90;;;-0.70;99.90;;;;;;5043347;28;20463;-77
2023/12/18 00:30:48;;;;;;;1999.90;999.90;;;-0.60;99.90;;;;;;5043527;28;20522;-77
2023/12/18 00:33:14;;;;;;;1999.90;999.90;;;-0.70;99.90;;;;;;5049268;28;20033;-78
2023/12/18 00:35:40;;;;;;;1999.90;999.90;;;-0.70;99.90;;;;;;5047150;28;20037;-78
2023/12/18 00:38:05;;;;;;;1999.90;999.90;;;-0.60;99.90;;;;;;5048200;28;20025;-77
2023/12/18 00:40:31;;;;;;;1999.90;999.90;;;-0.60;99.90;;;;;;5050045;28;20025;-78
2023/12/18 00:42:57;;;;;;;1999.90;999.90;;;-0.50;99.90;;;;;;5048245;28;20029;-77
2023/12/18 00:45:23;;;;;;;1999.90;999.90;;;-0.50;99.90;;;;;;5049089;28;20374;-77
2023/12/18 00:47:49;;;;;;;1999.90;999.90;;;-0.40;99.90;;;;;;5033037;28;20744;-76
2023/12/18 00:50:15;;;;;;;1999.90;999.90;;;-0.40;99.90;;;;;;5048654;28;20037;-77
2023/12/18 00:52:41;;;;;;;1999.90;999.90;;;-0.50;99.90;;;;;;5049592;28;20040;-78
2023/12/18 00:55:07;;;;;;;1999.90;999.90;;;-0.50;99.90;;;;;;5048239;28;20033;-77
2023/12/18 00:57:33;;;;;;;1999.90;999.90;;;-0.50;99.90;;;;;;5044951;28;20458;-77
2023/12/18 01:00:00;;;;;;;1999.90;999.90;;;-0.40;99.90;;;;;;5048778;28;20060;-77
2023/12/18 01:02:25;;;;;;;1999.90;999.90;;;-0.50;99.90;;;;;;5048325;28;20030;-76
2023/12/18 01:04:51;;;;;;;1999.90;999.90;;;-0.60;99.90;;;;;;5047581;28;20040;-77
2023/12/18 01:07:17;;;;;;;1999.90;999.90;;;-0.50;99.90;;;;;;5048133;28;20562;-78
2023/12/18 01:09:43;;;;;;;1999.90;999.90;;;-0.60;99.90;;;;;;5050224;28;20519;-76
2023/12/18 01:12:08;;;;;;;1999.90;999.90;;;-0.50;99.90;;;;;;5048222;28;20024;-77
2023/12/18 01:14:34;;;;;;;1999.90;999.90;;;-0.50;99.90;;;;;;5049916;28;20096;-77
2023/12/18 01:17:00;;;;;;;1999.90;999.90;;;-0.50;99.90;;;;;;5048585;28;20084;-78
2023/12/18 01:19:25;;;;;;;1999.90;999.90;;;-0.50;99.90;;;;;;5048810;28;20033;-77
2023/12/18 01:21:51;;;;;;;1999.90;999.90;;;-0.50;99.90;;;;;;5050337;28;20028;-77
2023/12/18 01:24:17;;;;;;;1999.90;999.90;;;-0.50;99.90;;;;;;5047344;28;20029;-77
2023/12/18 01:26:43;;;;;;;1999.90;999.90;;;-0.50;99.90;;;;;;5050366;28;20051;-76
2023/12/18 01:29:09;;;;;;;1999.90;999.90;;;-0.60;99.90;;;;;;5048607;28;20487;-77
2023/12/18 01:31:36;;;;;;;1999.90;999.90;;;-0.60;99.90;;;;;;5050298;28;20028;-77
2023/12/18 01:34:01;;;;;;;1999.90;999.90;;;-0.60;99.90;;;;;;5050522;28;20025;-76
2023/12/18 01:36:27;;;;;;;1999.90;999.90;;;-0.70;99.90;;;;;;5047126;28;20033;-76
2023/12/18 01:38:53;;;;;;;1999.90;999.90;;;-0.70;99.90;;;;;;5032784;28;20790;-77
2023/12/18 01:41:19;;;;;;;1999.90;999.90;;;-0.70;99.90;;;;;;5049542;28;20452;-76
2023/12/18 01:43:46;;;;;;;1999.90;999.90;;;-0.70;99.90;;;;;;5046930;28;20108;-77
2023/12/18 01:46:18;;;;;;;1999.90;999.90;;;-0.70;99.90;;;;;;5049820;28;20700;-76
2023/12/18 01:48:45;;;;;;;1999.90;999.90;;;-0.80;99.90;;;;;;5050034;28;20098;-78
2023/12/18 01:51:28;;;;;;;1999.90;999.90;;;-0.80;99.90;;;;;;5048215;28;20029;-77
2023/12/18 01:53:56;;;;;;;1999.90;999.90;;;-0.70;99.90;;;;;;5047954;28;20423;-76
2023/12/18 01:56:25;;;;;;;1999.90;999.90;;;-0.70;99.90;;;;;;5049183;28;20035;-76
2023/12/18 01:58:53;;;;;;;1999.90;999.90;;;-0.70;99.90;;;;;;5049053;28;20442;-77
2023/12/18 02:01:19;;;;;;;1999.90;999.90;;;-0.70;99.90;;;;;;5049108;28;21538;-78
2023/12/18 02:03:46;;;;;;;1999.90;999.90;;;-0.80;99.90;;;;;;5050161;28;20060;-78
2023/12/18 02:06:14;;;;;;;1999.90;999.90;;;-0.70;99.90;;;;;;5048607;28;20075;-77
2023/12/18 02:08:39;;;;;;;1999.90;999.90;;;-0.70;99.90;;;;;;5048274;28;20589;-77
2023/12/18 02:11:05;;;;;;;1999.90;999.90;;;-0.80;99.90;;;;;;5048900;28;20033;-77
2023/12/18 02:13:31;;;;;;;1999.90;999.90;;;-0.70;99.90;;;;;;5047265;28;20037;-77
2023/12/18 02:15:58;;;;;;;1999.90;999.90;;;-0.60;99.90;;;;;;5045879;28;20029;-77
2023/12/18 02:18:23;;;;;;;1999.90;999.90;;;-0.60;99.90;;;;;;5046302;28;20033;-77
2023/12/18 02:20:49;;;;;;;1999.90;999.90;;;-0.60;99.90;;;;;;5046453;28;20039;-77
2023/12/18 02:23:14;;;;;;;1999.90;999.90;;;-0.50;99.90;;;;;;5047932;28;20076;-77
2023/12/18 02:25:40;;;;;;;1999.90;999.90;;;-0.60;99.90;;;;;;5048527;28;20033;-77
2023/12/18 02:28:10;;;;;;;1999.90;999.90;;;-0.60;99.90;;;;;;5046308;28;20032;-77
2023/12/18 02:30:36;;;;;;;1999.90;999.90;;;-0.70;99.90;;;;;;5047038;28;20037;-78
2023/12/18 02:33:02;;;;;;;1999.90;999.90;;;-0.60;99.90;;;;;;5032666;28;20336;-77
2023/12/18 02:35:28;;;;;;;1999.90;999.90;;;-0.70;99.90;;;;;;5048675;28;20056;-78
2023/12/18 02:37:53;;;;;;;1999.90;999.90;;;-0.60;99.90;;;;;;5045033;28;20065;-78
2023/12/18 02:40:19;;;;;;;1999.90;999.90;;;-0.60;99.90;;;;;;5045592;28;20037;-77
2023/12/18 02:42:45;;;;;;;1999.90;999.90;;;-0.60;99.90;;;;;;5046764;28;20040;-78
2023/12/18 02:45:11;;;;;;;1999.90;999.90;;;-0.70;99.90;;;;;;5030094;28;20487;-78
2023/12/18 02:47:37;;;;;;;1999.90;999.90;;;-0.70;99.90;;;;;;5048445;28;20467;-78
2023/12/18 02:50:03;;;;;;;1999.90;999.90;;;-0.70;99.90;;;;;;5046289;28;20043;-77
2023/12/18 02:52:28;;;;;;;1999.90;999.90;;;-0.80;99.90;;;;;;5048541;28;20041;-77
2023/12/18 02:54:54;;;;;;;1999.90;999.90;;;-0.80;99.90;;;;;;5045686;28;20083;-78
2023/12/18 02:57:20;;;;;;;1999.90;999.90;;;-0.80;99.90;;;;;;5045395;28;20043;-77
2023/12/18 02:59:45;;;;;;;1999.90;999.90;;;-0.80;99.90;;;;;;5045570;28;20510;-77
2023/12/18 03:02:11;;;;;;;1999.90;999.90;;;-0.80;99.90;;;;;;5043819;28;20025;-78
2023/12/18 03:04:41;;;;;;;1999.90;999.90;;;-0.80;99.90;;;;;;5046341;28;20040;-77
2023/12/18 03:07:08;;;;;;;1999.90;999.90;;;-0.70;99.90;;;;;;5044763;28;20040;-77
2023/12/18 03:09:35;;;;;;;1999.90;999.90;;;-0.70;99.90;;;;;;5044844;28;20410;-77
2023/12/18 03:12:01;;;;;;;1999.90;999.90;;;-0.70;99.90;;;;;;5047444;28;20056;-77
2023/12/18 03:14:26;;;;;;;1999.90;999.90;;;-0.60;99.90;;;;;;5045386;28;20083;-77
2023/12/18 03:16:52;;;;;;;1999.90;999.90;;;-0.60;99.90;;;;;;5043369;28;20040;-77
2023/12/18 03:19:18;;;;;;;1999.90;999.90;;;-0.70;99.90;;;;;;5047516;28;20075;-77
2023/12/18 03:21:48;;;;;;;1999.90;999.90;;;-0.70;99.90;;;;;;5048199;28;20450;-77
2023/12/18 03:24:14;;;;;;;1999.90;999.90;;;-0.80;99.90;;;;;;5045617;28;20490;-78
2023/12/18 03:26:39;;;;;;;1999.90;999.90;;;-0.80;99.90;;;;;;5048115;28;20051;-77
2023/12/18 03:29:05;;;;;;;1999.90;999.90;;;-0.70;99.90;;;;;;5045657;28;20654;-78
2023/12/18 03:31:31;;;;;;;1999.90;999.90;;;-0.70;99.90;;;;;;5042992;28;20052;-76
2023/12/18 03:33:57;;;;;;;1999.90;999.90;;;-0.60;99.90;;;;;;5042605;28;20531;-77
2023/12/18 03:36:22;;;;;;;1999.90;999.90;;;-0.60;99.90;;;;;;5045987;28;20462;-78
2023/12/18 03:38:48;;;;;;;1999.90;999.90;;;-0.60;99.90;;;;;;5046559;28;20039;-78
2023/12/18 03:41:14;;;;;;;1999.90;999.90;;;-0.60;99.90;;;;;;5045219;28;20037;-77
2023/12/18 03:43:40;;;;;;;1999.90;999.90;;;-0.60;99.90;;;;;;5043611;28;20083;-78
2023/12/18 03:46:06;;;;;;;1999.90;999.90;;;-0.70;99.90;;;;;;5046105;28;20029;-77
2023/12/18 03:48:32;;;;;;;1999.90;999.90;;;-0.60;99.90;;;;;;5045402;28;20055;-78
2023/12/18 03:50:58;;;;;;;1999.90;999.90;;;-0.80;99.90;;;;;;5044834;28;20041;-77
2023/12/18 03:53:24;;;;;;;1999.90;999.90;;;-0.70;99.90;;;;;;5045337;28;20033;-78
2023/12/18 03:55:50;;;;;;;1999.90;999.90;;;-0.80;99.90;;;;;;5043102;28;20045;-77
2023/12/18 03:58:15;;;;;;;1999.90;999.90;;;-0.60;99.90;;;;;;5044785;28;20113;-77
2023/12/18 04:00:41;;;;;;;1999.90;999.90;;;-0.60;99.90;;;;;;5043414;28;20506;-77
2023/12/18 04:03:07;;;;;;;1999.90;999.90;;;-0.70;99.90;;;;;;5045471;28;20039;-77
2023/12/18 04:05:33;;;;;;;1999.90;999.90;;;-0.80;99.90;;;;;;5025700;28;20472;-77
2023/12/18 04:08:01;;;;;;;1999.90;999.90;;;-0.80;99.90;;;;;;5043611;28;20033;-77
2023/12/18 04:10:27;;;;;;;1999.90;999.90;;;-0.70;99.90;;;;;;5028601;28;20080;-76
2023/12/18 04:12:54;;;;;;;1999.90;999.90;;;-0.70;99.90;;;;;;5024861;28;20053;-77
2023/12/18 04:15:19;;;;;;;1999.90;999.90;;;-0.60;99.90;;;;;;5043759;28;20029;-78
2023/12/18 04:17:45;;;;;;;1999.90;999.90;;;-0.70;99.90;;;;;;5040758;28;20078;-77
2023/12/18 04:20:15;;;;;;;1999.90;999.90;;;-0.70;99.90;;;;;;5044426;28;20021;-77
2023/12/18 04:22:42;;;;;;;1999.90;999.90;;;-0.70;99.90;;;;;;5045715;28;20029;-77
2023/12/18 04:25:08;;;;;;;1999.90;999.90;;;-0.80;99.90;;;;;;5026120;28;20041;-77
2023/12/18 04:27:34;;;;;;;1999.90;999.90;;;-0.80;99.90;;;;;;5045686;28;20102;-77
2023/12/18 04:29:59;;;;;;;1999.90;999.90;;;-0.80;99.90;;;;;;5038945;28;20044;-77
2023/12/18 04:32:26;;;;;;;1999.90;999.90;;;-0.70;99.90;;;;;;5044764;28;20059;-76
2023/12/18 04:34:52;;;;;;;1999.90;999.90;;;-0.70;99.90;;;;;;5041377;28;20017;-77
2023/12/18 04:37:18;;;;;;;1999.90;999.90;;;-0.70;99.90;;;;;;5043659;28;20029;-78
2023/12/18 04:39:43;;;;;;;1999.90;999.90;;;-0.70;99.90;;;;;;5042164;28;20384;-77
2023/12/18 04:42:10;;;;;;;1999.90;999.90;;;-0.70;99.90;;;;;;5043068;28;20021;-77
2023/12/18 04:44:36;;;;;;;1999.90;999.90;;;-0.60;99.90;;;;;;5042970;28;20029;-77
2023/12/18 04:47:02;;;;;;;1999.90;999.90;;;-0.60;99.90;;;;;;5042567;28;20091;-77
2023/12/18 04:49:27;;;;;;;1999.90;999.90;;;-0.60;99.90;;;;;;5045180;28;20061;-78
2023/12/18 04:51:53;;;;;;;1999.90;999.90;;;-0.60;99.90;;;;;;5042458;28;20045;-78
2023/12/18 04:54:19;;;;;;;1999.90;999.90;;;-0.60;99.90;;;;;;5041277;28;20033;-77
2023/12/18 04:56:44;;;;;;;1999.90;999.90;;;-0.60;99.90;;;;;;5045371;28;20033;-77
2023/12/18 04:59:13;;;;;;;1999.90;999.90;;;-0.60;99.90;;;;;;5043634;28;20036;-77
2023/12/18 05:01:42;;;;;;;1999.90;999.90;;;-0.70;99.90;;;;;;5042359;28;20033;-78
2023/12/18 05:04:08;;;;;;;1999.90;999.90;;;-0.70;99.90;;;;;;5042489;28;20477;-78
2023/12/18 05:06:33;;;;;;;1999.90;999.90;;;-0.80;99.90;;;;;;5024408;28;20025;-77
2023/12/18 05:08:59;;;;;;;1999.90;999.90;;;-0.80;99.90;;;;;;5041335;28;20043;-76
2023/12/18 05:11:25;;;;;;;1999.90;999.90;;;-0.80;99.90;;;;;;5040876;28;20048;-77
2023/12/18 05:13:51;;;;;;;1999.90;999.90;;;-0.60;99.90;;;;;;5044748;28;20047;-77
2023/12/18 05:16:18;;;;;;;1999.90;999.90;;;-0.60;99.90;;;;;;5043323;28;20052;-77
2023/12/18 05:18:44;;;;;;;1999.90;999.90;;;-0.60;99.90;;;;;;5026389;28;20033;-77
2023/12/18 05:21:11;;;;;;;1999.90;999.90;;;-0.60;99.90;;;;;;5059752;28;20098;-77
2023/12/18 05:23:37;;;;;;;1999.90;999.90;;;-0.60;99.90;;;;;;5045972;28;20522;-77
2023/12/18 05:26:03;;;;;;;1999.90;999.90;;;-0.60;99.90;;;;;;5046623;28;20390;-77
2023/12/18 05:28:29;;;;;;;1999.90;999.90;;;-0.70;99.90;;;;;;5046173;28;20047;-77
2023/12/18 05:30:55;;;;;;;1999.90;999.90;;;-0.60;99.90;;;;;;5046785;28;20030;-77
2023/12/18 05:33:20;;;;;;;1999.90;999.90;;;-0.60;99.90;;;;;;5044061;28;20023;-77
2023/12/18 05:35:46;;;;;;;1999.90;999.90;;;-0.60;99.90;;;;;;5044672;28;20018;-77
2023/12/18 05:38:12;;;;;;;1999.90;999.90;;;-0.50;99.90;;;;;;5045985;28;20071;-77
2023/12/18 05:40:38;;;;;;;1999.90;999.90;;;-0.50;99.90;;;;;;5047748;28;20091;-77
2023/12/18 05:43:04;;;;;;;1999.90;999.90;;;-0.60;99.90;;;;;;5046039;28;20095;-78
2023/12/18 05:45:33;;;;;;;1999.90;999.90;;;-0.60;99.90;;;;;;5046837;28;20032;-78
2023/12/18 05:48:00;;;;;;;1999.90;999.90;;;-0.60;99.90;;;;;;5046100;28;20076;-77
2023/12/18 05:50:26;;;;;;;1999.90;999.90;;;-0.60;99.90;;;;;;5045528;28;20041;-77
2023/12/18 05:52:52;;;;;;;1999.90;999.90;;;-0.50;99.90;;;;;;5047942;28;20067;-77
2023/12/18 05:55:17;;;;;;;1999.90;999.90;;;-0.50;99.90;;;;;;5043531;28;20468;-77
2023/12/18 05:57:43;;;;;;;1999.90;999.90;;;-0.50;99.90;;;;;;5047110;28;20025;-77
2023/12/18 06:00:09;;;;;;;1999.90;999.90;;;-0.50;99.90;;;;;;5046014;28;20024;-77
2023/12/18 06:02:36;;;;;;;1999.90;999.90;;;-0.50;99.90;;;;;;5042979;28;20392;-77
2023/12/18 06:05:02;;;;;;;1999.90;999.90;;;-0.50;99.90;;;;;;5043978;28;20083;-78
2023/12/18 06:07:28;;;;;;;1999.90;999.90;;;-0.50;99.90;;;;;;5048088;28;20029;-78
2023/12/18 06:09:54;;;;;;;1999.90;999.90;;;-0.60;99.90;;;;;;5046096;28;20861;-78
2023/12/18 06:12:19;;;;;;;1999.90;999.90;;;-0.60;99.90;;;;;;5048633;28;20501;-76
2023/12/18 06:14:45;;;;;;;1999.90;999.90;;;-0.60;99.90;;;;;;5046192;28;20039;-77
2023/12/18 06:17:14;;;;;;;1999.90;999.90;;;-0.60;99.90;;;;;;5046466;28;20037;-77
2023/12/18 06:19:40;;;;;;;1999.90;999.90;;;-0.60;99.90;;;;;;5044836;28;20413;-78
2023/12/18 06:22:06;;;;;;;1999.90;999.90;;;-0.60;99.90;;;;;;5045943;28;20029;-77
2023/12/18 06:24:31;;;;;;;1999.90;999.90;;;-0.60;99.90;;;;;;5044198;28;20033;-77
2023/12/18 06:26:57;;;;;;;1999.90;999.90;;;-0.60;99.90;;;;;;5042783;28;20071;-78
2023/12/18 06:29:27;;;;;;;1999.90;999.90;;;-0.60;99.90;;;;;;5044875;28;20064;-78
2023/12/18 06:31:52;;;;;;;1999.90;999.90;;;-0.60;99.90;;;;;;5046778;28;20092;-77
2023/12/18 06:34:18;;;;;;;1999.90;999.90;;;-0.60;99.90;;;;;;5044542;28;20112;-77
2023/12/18 06:36:44;;;;;;;1999.90;999.90;;;-0.60;99.90;;;;;;5045470;28;20029;-77
2023/12/18 06:39:10;;;;;;;1999.90;999.90;;;-0.60;99.90;;;;;;5043998;28;20032;-74
2023/12/18 06:41:36;;;;;;;1999.90;999.90;;;-0.60;99.90;;;;;;5042018;28;20514;-77
2023/12/18 06:44:02;;;;;;;1999.90;999.90;;;-0.50;99.90;;;;;;5057426;28;20068;-76
2023/12/18 06:46:28;;;;;;;1999.90;999.90;;;-0.60;99.90;;;;;;5045330;28;20033;-76
2023/12/18 06:48:55;;;;;;;1999.90;999.90;;;-0.60;99.90;;;;;;5043589;28;20435;-77
2023/12/18 06:51:21;;;;;;;1999.90;999.90;;;-0.60;99.90;;;;;;5046536;28;20423;-74
2023/12/18 06:53:50;;;;;;;1999.90;999.90;;;-0.60;99.90;;;;;;5047964;28;20033;-76
2023/12/18 06:56:16;;;;;;;1999.90;999.90;;;-0.50;99.90;;;;;;5045709;28;20543;-77
2023/12/18 06:58:42;;;;;;;1999.90;999.90;;;-0.60;99.90;;;;;;5050708;28;20076;-77
2023/12/18 07:01:07;;;;;;;1999.90;999.90;;;-0.50;99.90;;;;;;5048143;28;20040;-78
2023/12/18 07:03:33;;;;;;;1999.90;999.90;;;-0.50;99.90;;;;;;5047709;28;20043;-76
2023/12/18 07:05:59;;;;;;;1999.90;999.90;;;-0.50;99.90;;;;;;5048560;28;20153;-76
2023/12/18 07:08:24;;;;;;;1999.90;999.90;;;-0.50;99.90;;;;;;5047177;28;20049;-80
2023/12/18 07:10:50;;;;;;;1999.90;999.90;;;-0.50;99.90;;;;;;5047316;28;20071;-80
2023/12/18 07:13:16;;;;;;;1999.90;999.90;;;-0.60;99.90;;;;;;5042376;28;20266;-79
2023/12/18 07:15:41;;;;;;;1999.90;999.90;;;-0.60;99.90;;;;;;5044945;28;20025;-79
2023/12/18 07:18:07;;;;;;;1999.90;999.90;;;-0.50;99.90;;;;;;5030204;28;20033;-78
2023/12/18 07:20:33;;;;;;;1999.90;999.90;;;-0.50;99.90;;;;;;5048191;28;20082;-78
2023/12/18 07:22:59;;;;;;;1999.90;999.90;;;-0.50;99.90;;;;;;5045770;28;20667;-78
2023/12/18 07:25:25;;;;;;;1999.90;999.90;;;-0.40;99.90;;;;;;5047013;28;20044;-77
2023/12/18 07:27:51;;;;;;;1999.90;999.90;;;-0.40;99.90;;;;;;5043248;28;20167;-78
2023/12/18 07:30:16;;;;;;;1999.90;999.90;;;-0.40;99.90;;;;;;5046525;28;20032;-79
2023/12/18 07:32:42;;;;;;;1999.90;999.90;;;-0.40;99.90;;;;;;5048371;28;20031;-78
2023/12/18 07:35:08;;;;;;;1999.90;999.90;;;-0.40;99.90;;;;;;5046524;28;20033;-78
2023/12/18 07:37:33;;;;;;;1999.90;999.90;;;-0.40;99.90;;;;;;5041374;28;20031;-78
2023/12/18 07:40:00;;;;;;;1999.90;999.90;;;-0.50;99.90;;;;;;5041902;28;20484;-78
2023/12/18 07:42:26;;;;;;;1999.90;999.90;;;-0.40;99.90;;;;;;5041360;28;20037;-79
2023/12/18 07:44:52;;;;;;;1999.90;999.90;;;-0.40;99.90;;;;;;5044076;28;20025;-79
2023/12/18 07:47:19;;;;;;;1999.90;999.90;;;-0.50;99.90;;;;;;5038513;28;20557;-78
2023/12/18 07:49:45;;;;;;;1999.90;999.90;;;-0.40;99.90;;;;;;5025471;28;20052;-78
2023/12/18 07:52:11;;;;;;;1999.90;999.90;;;-0.40;99.90;;;;;;5059242;28;20032;-77
2023/12/18 07:54:37;;;;;;;1999.90;999.90;;;-0.30;99.90;;;;;;5045616;28;20035;-79
2023/12/18 07:57:02;;;;;;;1999.90;999.90;;;-0.30;99.90;;;;;;5043701;28;20390;-78
2023/12/18 07:59:29;;;;;;;1999.90;999.90;;;-0.40;99.90;;;;;;5045617;28;20090;-78
2023/12/18 08:01:54;;;;;;;1999.90;999.90;;;-0.20;99.90;;;;;;5044769;28;20033;-78
2023/12/18 08:04:20;;;;;;;1999.90;999.90;;;-0.20;99.90;;;;;;5044094;28;20672;-77
2023/12/18 08:06:47;;;;;;;1999.90;999.90;;;-0.20;99.90;;;;;;5042794;28;20530;-77
2023/12/18 08:09:13;;;;;;;1999.90;999.90;;;-0.20;99.90;;;;;;5041763;28;20036;-78
2023/12/18 08:11:39;;;;;;;1999.90;999.90;;;-0.30;99.90;;;;;;5044288;28;20033;-78
2023/12/18 08:14:05;;;;;;;1999.90;999.90;;;-0.30;99.90;;;;;;5047157;28;20055;-79
2023/12/18 08:16:31;;;;;;;1999.90;999.90;;;-0.20;99.90;;;;;;5046992;28;20032;-79
2023/12/18 08:18:58;;;;;;;1999.90;999.90;;;-0.20;99.90;;;;;;5044982;28;20511;-77
2023/12/18 08:21:26;;;;;;;1999.90;999.90;;;-0.20;99.90;;;;;;5047054;28;20068;-80
2023/12/18 08:23:54;;;;;;;1999.90;999.90;;;-0.30;99.90;;;;;;5043685;28;20565;-80
2023/12/18 08:26:20;;;;;;;1999.90;999.90;;;-0.30;99.90;;;;;;5027178;28;20071;-80
2023/12/18 08:28:46;;;;;;;1999.90;999.90;;;-0.10;99.90;;;;;;5045198;28;20041;-81
2023/12/18 08:31:12;;;;;;;1999.90;999.90;;;-0.20;99.90;;;;;;5042313;28;20613;-81
2023/12/18 08:33:41;;;;;;;1999.90;999.90;;;-0.20;99.90;;;;;;5044288;28;20029;-81
2023/12/18 08:36:07;;;;;;;1999.90;999.90;;;-0.30;99.90;;;;;;5029518;28;20045;-81
2023/12/18 08:38:33;;;;;;;1999.90;999.90;;;-0.20;99.90;;;;;;5043416;28;20025;-81
2023/12/18 08:40:59;;;;;;;1999.90;999.90;;;-0.20;99.90;;;;;;5043583;28;20030;-80
2023/12/18 08:43:24;;;;;;;1999.90;999.90;;;0.00;99.90;;;;;;5046705;28;20041;-81
2023/12/18 08:45:50;;;;;;;1999.90;999.90;;;0.00;99.90;;;;;;5047608;28;20033;-81
2023/12/18 08:48:16;;;;;;;1999.90;999.90;;;0.10;99.90;;;;;;5032023;28;20049;-81
2023/12/18 08:50:42;;;;;;;1999.90;999.90;;;0.10;99.90;;;;;;5049273;28;20040;-82
2023/12/18 08:53:08;;;;;;;1999.90;999.90;;;0.10;99.90;;;;;;5049561;28;20728;-81
2023/12/18 08:55:38;;;;;;;1999.90;999.90;;;0.10;99.90;;;;;;5051476;28;20072;-81
2023/12/18 08:58:08;;;;;;;1999.90;999.90;;;0.20;99.90;;;;;;5050086;28;20044;-81
2023/12/18 09:00:35;;;;;;;1999.90;999.90;;;0.20;99.90;;;;;;5053420;28;20041;-81
2023/12/18 09:03:03;;;;;;;1999.90;999.90;;;0.30;99.90;;;;;;5049531;28;20534;-80
2023/12/18 09:05:30;;;;;;;1999.90;999.90;;;0.20;99.60;;;;;;5050094;28;20114;-81
2023/12/18 09:07:56;;;;;;;1999.90;999.90;;;0.20;99.50;;;;;;5052565;28;20491;-81
2023/12/18 09:10:22;;;;;;;1999.90;999.90;;;0.20;99.30;;;;;;5054307;28;20063;-81
2023/12/18 09:12:49;;;;;;;1999.90;999.90;;;0.30;99.50;;;;;;5052838;28;20041;-80
2023/12/18 09:15:16;;;;;;;1999.90;999.90;;;0.30;99.30;;;;;;5050665;28;20059;-79
2023/12/18 09:17:41;;;;;;;1999.90;999.90;;;0.30;99.30;;;;;;5051838;28;20055;-82
2023/12/18 09:20:08;;;;;;;1999.90;999.90;;;0.30;99.10;;;;;;5052959;28;20471;-81
2023/12/18 09:22:34;;;;;;;1999.90;999.90;;;0.20;98.80;;;;;;5055604;28;20037;-81
2023/12/18 09:25:00;;;;;;;1999.90;999.90;;;0.20;98.80;;;;;;5055948;28;20029;-81
2023/12/18 09:27:26;;;;;;;1999.90;999.90;;;0.30;99.00;;;;;;5052451;28;20712;-81
2023/12/18 09:29:51;;;;;;;1999.90;999.90;;;0.30;99.10;;;;;;5051627;28;20032;-82
2023/12/18 09:32:17;;;;;;;1999.90;999.90;;;0.40;98.80;;;;;;5050200;28;20402;-81
2023/12/18 09:34:43;;;;;;;1999.90;999.90;;;0.30;98.60;;;;;;5049875;28;20037;-81
2023/12/18 09:37:08;;;;;;;1999.90;999.90;;;0.30;98.50;;;;;;5053926;28;20036;-84
2023/12/18 09:39:34;;;;;;;1999.90;999.90;;;0.30;98.80;;;;;;5056992;28;20063;-83
2023/12/18 09:42:05;;;;;;;1999.90;999.90;;;0.40;98.90;;;;;;5059806;28;20017;-84
2023/12/18 09:44:34;;;;;;;1999.90;999.90;;;0.40;98.60;;;;;;5054031;28;20037;-81
2023/12/18 09:47:03;;;;;;;1999.90;999.90;;;0.50;98.80;;;;;;5063993;28;20499;-82
2023/12/18 09:49:29;;;;;;;1999.90;999.90;;;0.50;98.80;;;;;;5049948;28;20068;-80
2023/12/18 09:52:01;;;;;;;1999.90;999.90;;;0.60;98.60;;;;;;5053823;28;21174;-81
2023/12/18 09:54:27;;;;;;;1999.90;999.90;;;0.60;98.50;;;;;;5057049;28;20036;-87
2023/12/18 09:56:55;;;;;;;1999.90;999.90;;;0.50;98.10;;;;;;5054323;28;20036;-80
2023/12/18 09:59:21;;;;;;;1999.90;999.90;;;0.60;98.50;;;;;;5055225;28;20045;-84
2023/12/18 10:01:48;;;;;;;1999.90;999.90;;;0.70;98.50;;;;;;5060818;28;20105;-83
2023/12/18 10:04:13;;;;;;;1999.90;999.90;;;0.80;98.20;;;;;;5046426;28;20049;-80
2023/12/18 10:06:40;;;;;;;1999.90;999.90;;;0.90;98.00;;;;;;5052718;28;20036;-81
2023/12/18 10:09:13;;;;;;;1999.90;999.90;;;0.90;98.00;;;;;;5050517;28;20056;-80
2023/12/18 10:11:41;;;;;;;1999.90;999.90;;;1.00;97.60;;;;;;5046497;28;20053;-80
2023/12/18 10:14:07;;;;;;;1999.90;999.90;;;0.90;97.80;;;;;;5049887;28;20021;-80
2023/12/18 10:16:33;;;;;;;1999.90;999.90;;;0.80;98.30;;;;;;5046237;28;20372;-81
2023/12/18 10:18:59;;;;;;;1999.90;999.90;;;0.90;98.70;;;;;;5048653;28;20104;-82
2023/12/18 10:21:25;;;;;;;1999.90;999.90;;;1.10;98.60;;;;;;5049528;28;20117;-79
2023/12/18 10:23:54;;;;;;;1999.90;999.90;;;1.20;98.80;;;;;;5046341;28;20036;-82
2023/12/18 10:26:20;;;;;;;1999.90;999.90;;;1.20;98.40;;;;;;5046437;28;20502;-79
2023/12/18 10:28:52;;;;;;;1999.90;999.90;;;1.10;98.60;;;;;;5047143;28;20091;-80
2023/12/18 10:31:21;;;;;;;1999.90;999.90;;;1.30;98.70;;;;;;5045605;28;20028;-79
2023/12/18 10:33:48;;;;;;;1999.90;999.90;;;1.40;99.10;;;;;;5045584;28;20025;-79
2023/12/18 10:36:16;;;;;;;1999.90;999.90;;;1.50;98.70;;;;;;5047692;28;20116;-80
2023/12/18 10:38:47;;;;;;;1999.90;999.90;;;1.80;99.10;;;;;;5047300;28;20029;-81
2023/12/18 10:41:14;;;;;;;1999.90;999.90;;;1.50;97.80;;;;;;5045969;28;20082;-80
2023/12/18 10:43:41;;;;;;;1999.90;999.90;;;1.60;98.40;;;;;;5047725;28;20020;-79
2023/12/18 10:46:11;;;;;;;1999.90;999.90;;;1.70;98.50;;;;;;5047907;28;20033;-81
2023/12/18 10:48:39;;;;;;;1999.90;999.90;;;1.70;98.40;;;;;;5047941;28;20037;-78
2023/12/18 10:51:06;;;;;;;1999.90;999.90;;;1.70;98.20;;;;;;5045995;28;20041;-80
2023/12/18 10:53:35;;;;;;;1999.90;999.90;;;1.60;97.90;;;;;;5047174;28;20040;-82
2023/12/18 10:56:03;;;;;;;1999.90;999.90;;;1.50;97.40;;;;;;5047683;28;20033;-80
2023/12/18 10:58:30;;;;;;;1999.90;999.90;;;1.40;97.50;;;;;;5042530;28;20071;-80
2023/12/18 11:00:57;;;;;;;1999.90;999.90;;;1.40;97.90;;;;;;5049562;28;20021;-80
2023/12/18 11:03:26;;;;;;;1999.90;999.90;;;1.70;98.30;;;;;;5042812;28;20056;-80
2023/12/18 11:05:54;;;;;;;1999.90;999.90;;;1.50;97.20;;;;;;5048274;28;20036;-80
2023/12/18 11:08:20;;;;;;;1999.90;999.90;;;1.50;97.20;;;;;;5049065;28;20029;-82
2023/12/18 11:10:46;;;;;;;1999.90;999.90;;;1.40;97.20;;;;;;5046994;28;20048;-79
2023/12/18 11:13:25;;;;;;;1999.90;999.90;;;1.50;97.70;;;;;;5047115;28;21333;-79
2023/12/18 11:16:22;;;;;;;1999.90;999.90;;;1.40;97.60;;;;;;5044606;28;20033;-78
2023/12/18 11:19:28;;;;;;;1999.90;999.90;;;1.90;98.10;;;;;;5039520;28;20041;-79
2023/12/18 11:21:54;;;;;;;1999.90;999.90;;;1.70;96.80;;;;;;5044378;28;20108;-79
2023/12/18 11:24:20;;;;;;;1999.90;999.90;;;1.80;97.00;;;;;;5047510;28;20136;-80
2023/12/18 11:26:46;;;;;;;1999.90;999.90;;;1.80;97.00;;;;;;5041956;28;20728;-81
2023/12/18 11:29:51;;;;;;;1999.90;999.90;;;1.60;96.40;;;;;;5047770;28;20043;-81
2023/12/18 11:32:39;;;;;;;1999.90;999.90;;;1.60;96.80;;;;;;5050910;28;20399;-81
2023/12/18 11:35:09;;;;;;;1999.90;999.90;;;1.50;96.90;;;;;;5048293;28;20028;-84
2023/12/18 11:38:02;;;;;;;1999.90;999.90;;;1.50;96.70;;;;;;5045613;28;20033;-83
2023/12/18 11:40:36;;;;;;;1999.90;999.90;;;1.60;96.80;;;;;;5040669;28;20049;-85
2023/12/18 11:43:09;;;;;;;1999.90;999.90;;;1.70;96.90;;;;;;5045425;28;20056;-83
2023/12/18 11:45:43;;;;;;;1999.90;999.90;;;1.70;96.70;;;;;;5045788;28;20541;-82
2023/12/18 11:48:17;;;;;;;1999.90;999.90;;;1.80;96.70;;;;;;5043718;28;20053;-86
2023/12/18 11:50:43;;;;;;;1999.90;999.90;;;1.80;96.90;;;;;;5046273;28;20037;-81
2023/12/18 11:53:22;;;;;;;1999.90;999.90;;;1.70;96.40;;;;;;5046268;28;20036;-82
2023/12/18 11:55:54;;;;;;;1999.90;999.90;;;1.70;96.20;;;;;;5029447;28;20139;-81
2023/12/18 11:58:21;;;;;;;1999.90;999.90;;;1.90;96.70;;;;;;5046545;28;20475;-83
2023/12/18 12:00:48;;;;;;;1999.90;999.90;;;1.80;96.30;;;;;;5046595;28;20025;-82